sensor_id;sensor_type;location;lat;lon;timestamp;pressure;altitude;pressure_sealevel;temperature;humidity
76973;BME280;65907;53.640;10.050;2024-03-02T00:01:53;99771.78;;;19.11;nan
76973;BME280;65907;53.640;10.050;2024-03-02T00:04:18;99765.78;;;19.10;nan
76973;BME280;65907;53.640;10.050;2024-03-02T00:06:45;99777.00;;;19.11;nan
76973;BME280;65907;53.640;10.050;2024-03-02T00:09:10;99776.31;;;19.09;nan
76973;BME280;65907;53.640;10.050;2024-03-02T00:11:38;99765.91;;;19.09;nan
76973;BME280;65907;53.640;10.050;2024-03-02T00:14:04;99773.72;;;19.09;nan
76973;BME280;65907;53.640;10.050;2024-03-02T00:16:30;99774.69;;;19.08;nan
76973;BME280;65907;53.640;10.050;2024-03-02T00:18:56;99772.06;;;19.08;nan
76973;BME280;65907;53.640;10.050;2024-03-02T00:21:24;99772.06;;;19.08;nan
76973;BME280;65907;53.640;10.050;2024-03-02T00:23:52;99775.66;;;19.06;nan
76973;BME280;65907;53.640;10.050;2024-03-02T00:26:18;99779.09;;;19.07;nan
76973;BME280;65907;53.640;10.050;2024-03-02T00:28:44;99773.88;;;19.07;nan
76973;BME280;65907;53.640;10.050;2024-03-02T00:31:13;99778.25;;;19.06;nan
76973;BME280;65907;53.640;10.050;2024-03-02T00:33:46;99776.47;;;19.07;nan
76973;BME280;65907;53.640;10.050;2024-03-02T00:36:12;99775.66;;;19.06;nan
76973;BME280;65907;53.640;10.050;2024-03-02T00:38:44;99773.88;;;19.07;nan
76973;BME280;65907;53.640;10.050;2024-03-02T00:41:15;99779.91;;;19.08;nan
76973;BME280;65907;53.640;10.050;2024-03-02T00:43:42;99774.69;;;19.08;nan
76973;BME280;65907;53.640;10.050;2024-03-02T00:46:12;99780.06;;;19.06;nan
76973;BME280;65907;53.640;10.050;2024-03-02T00:48:38;99786.06;;;19.06;nan
76973;BME280;65907;53.640;10.050;2024-03-02T00:51:04;99786.22;;;19.05;nan
76973;BME280;65907;53.640;10.050;2024-03-02T00:53:29;99788.00;;;19.04;nan
76973;BME280;65907;53.640;10.050;2024-03-02T00:55:55;99780.19;;;19.04;nan
76973;BME280;65907;53.640;10.050;2024-03-02T00:58:20;99780.19;;;19.04;nan
76973;BME280;65907;53.640;10.050;2024-03-02T01:00:45;99781.13;;;19.03;nan
76973;BME280;65907;53.640;10.050;2024-03-02T01:03:10;99775.94;;;19.03;nan
76973;BME280;65907;53.640;10.050;2024-03-02T01:05:36;99784.44;;;19.05;nan
76973;BME280;65907;53.640;10.050;2024-03-02T01:08:01;99784.56;;;19.04;nan
76973;BME280;65907;53.640;10.050;2024-03-02T01:10:27;99781.25;;;19.02;nan
76973;BME280;65907;53.640;10.050;2024-03-02T01:12:52;99781.13;;;19.03;nan
76973;BME280;65907;53.640;10.050;2024-03-02T01:15:17;99785.38;;;19.04;nan
76973;BME280;65907;53.640;10.050;2024-03-02T01:17:43;99782.78;;;19.04;nan
76973;BME280;65907;53.640;10.050;2024-03-02T01:20:08;99788.13;;;19.03;nan
76973;BME280;65907;53.640;10.050;2024-03-02T01:22:34;99781.97;;;19.04;nan
76973;BME280;65907;53.640;10.050;2024-03-02T01:25:00;99783.88;;;19.02;nan
76973;BME280;65907;53.640;10.050;2024-03-02T01:27:26;99786.47;;;19.02;nan
76973;BME280;65907;53.640;10.050;2024-03-02T01:29:52;99789.78;;;19.04;nan
76973;BME280;65907;53.640;10.050;2024-03-02T01:32:17;99782.09;;;19.02;nan
76973;BME280;65907;53.640;10.050;2024-03-02T01:34:42;99776.88;;;19.02;nan
76973;BME280;65907;53.640;10.050;2024-03-02T01:37:08;99778.66;;;19.02;nan
76973;BME280;65907;53.640;10.050;2024-03-02T01:39:33;99778.66;;;19.02;nan
76973;BME280;65907;53.640;10.050;2024-03-02T01:41:58;99780.44;;;19.01;nan
76973;BME280;65907;53.640;10.050;2024-03-02T01:44:23;99774.28;;;19.02;nan
76973;BME280;65907;53.640;10.050;2024-03-02T01:46:49;99770.84;;;19.02;nan
76973;BME280;65907;53.640;10.050;2024-03-02T01:49:14;99772.63;;;19.01;nan
76973;BME280;65907;53.640;10.050;2024-03-02T01:51:39;99775.25;;;19.01;nan
76973;BME280;65907;53.640;10.050;2024-03-02T01:54:04;99769.88;;;19.03;nan
76973;BME280;65907;53.640;10.050;2024-03-02T01:56:30;99766.47;;;19.02;nan
76973;BME280;65907;53.640;10.050;2024-03-02T01:58:55;99764.81;;;19.01;nan
76973;BME280;65907;53.640;10.050;2024-03-02T02:01:20;99757.00;;;19.01;nan
76973;BME280;65907;53.640;10.050;2024-03-02T02:03:45;99757.97;;;19.00;nan
76973;BME280;65907;53.640;10.050;2024-03-02T02:06:11;99752.75;;;19.00;nan
76973;BME280;65907;53.640;10.050;2024-03-02T02:08:39;99754.41;;;19.01;nan
76973;BME280;65907;53.640;10.050;2024-03-02T02:11:04;99752.59;;;19.02;nan
76973;BME280;65907;53.640;10.050;2024-03-02T02:13:29;99752.75;;;19.00;nan
76973;BME280;65907;53.640;10.050;2024-03-02T02:15:55;99750.00;;;19.02;nan
76973;BME280;65907;53.640;10.050;2024-03-02T02:18:20;99747.53;;;19.00;nan
76973;BME280;65907;53.640;10.050;2024-03-02T02:20:45;99745.75;;;19.01;nan
76973;BME280;65907;53.640;10.050;2024-03-02T02:23:10;99749.31;;;19.00;nan
76973;BME280;65907;53.640;10.050;2024-03-02T02:25:38;99746.88;;;18.98;nan
76973;BME280;65907;53.640;10.050;2024-03-02T02:28:03;99739.84;;;18.99;nan
76973;BME280;65907;53.640;10.050;2024-03-02T02:30:29;99743.97;;;19.01;nan
76973;BME280;65907;53.640;10.050;2024-03-02T02:32:55;99740.53;;;19.01;nan
76973;BME280;65907;53.640;10.050;2024-03-02T02:35:21;99745.75;;;19.01;nan
76973;BME280;65907;53.640;10.050;2024-03-02T02:37:46;99742.34;;;19.00;nan
76973;BME280;65907;53.640;10.050;2024-03-02T02:40:12;99739.84;;;18.99;nan
76973;BME280;65907;53.640;10.050;2024-03-02T02:42:37;99746.00;;;18.98;nan
76973;BME280;65907;53.640;10.050;2024-03-02T02:45:02;99746.97;;;18.97;nan
76973;BME280;65907;53.640;10.050;2024-03-02T02:47:28;99745.06;;;18.99;nan
76973;BME280;65907;53.640;10.050;2024-03-02T02:49:54;99739.06;;;18.98;nan
76973;BME280;65907;53.640;10.050;2024-03-02T02:52:20;99741.66;;;18.98;nan
76973;BME280;65907;53.640;10.050;2024-03-02T02:54:46;99732.97;;;18.98;nan
76973;BME280;65907;53.640;10.050;2024-03-02T02:57:11;99737.38;;;18.97;nan
76973;BME280;65907;53.640;10.050;2024-03-02T02:59:37;99727.75;;;18.98;nan
76973;BME280;65907;53.640;10.050;2024-03-02T03:02:02;99736.44;;;18.98;nan
76973;BME280;65907;53.640;10.050;2024-03-02T03:04:27;99730.28;;;18.99;nan
76973;BME280;65907;53.640;10.050;2024-03-02T03:06:52;99734.78;;;18.97;nan
76973;BME280;65907;53.640;10.050;2024-03-02T03:09:18;99732.97;;;18.98;nan
76973;BME280;65907;53.640;10.050;2024-03-02T03:11:43;99737.38;;;18.97;nan
76973;BME280;65907;53.640;10.050;2024-03-02T03:14:09;99726.13;;;18.97;nan
76973;BME280;65907;53.640;10.050;2024-03-02T03:16:34;99725.31;;;18.96;nan
76973;BME280;65907;53.640;10.050;2024-03-02T03:19:00;99726.97;;;18.97;nan
76973;BME280;65907;53.640;10.050;2024-03-02T03:21:25;99727.75;;;18.98;nan
76973;BME280;65907;53.640;10.050;2024-03-02T03:23:50;99726.97;;;18.97;nan
76973;BME280;65907;53.640;10.050;2024-03-02T03:26:16;99727.91;;;18.96;nan
76973;BME280;65907;53.640;10.050;2024-03-02T03:28:41;99720.09;;;18.96;nan
76973;BME280;65907;53.640;10.050;2024-03-02T03:31:06;99714.88;;;18.96;nan
76973;BME280;65907;53.640;10.050;2024-03-02T03:33:32;99713.09;;;18.97;nan
76973;BME280;65907;53.640;10.050;2024-03-02T03:35:57;99722.03;;;18.94;nan
76973;BME280;65907;53.640;10.050;2024-03-02T03:38:23;99718.59;;;18.94;nan
76973;BME280;65907;53.640;10.050;2024-03-02T03:40:48;99722.84;;;18.95;nan
76973;BME280;65907;53.640;10.050;2024-03-02T03:43:13;99717.63;;;18.95;nan
76973;BME280;65907;53.640;10.050;2024-03-02T03:45:38;99714.06;;;18.96;nan
76973;BME280;65907;53.640;10.050;2024-03-02T03:48:03;99718.31;;;18.97;nan
76973;BME280;65907;53.640;10.050;2024-03-02T03:50:29;99721.06;;;18.95;nan
76973;BME280;65907;53.640;10.050;2024-03-02T03:52:54;99717.50;;;18.96;nan
76973;BME280;65907;53.640;10.050;2024-03-02T03:55:19;99714.22;;;18.94;nan
76973;BME280;65907;53.640;10.050;2024-03-02T03:57:44;99716.81;;;18.94;nan
76973;BME280;65907;53.640;10.050;2024-03-02T04:00:10;99713.25;;;18.95;nan
76973;BME280;65907;53.640;10.050;2024-03-02T04:02:36;99712.41;;;18.95;nan
76973;BME280;65907;53.640;10.050;2024-03-02T04:05:01;99704.47;;;18.96;nan
76973;BME280;65907;53.640;10.050;2024-03-02T04:07:29;99707.88;;;18.97;nan
76973;BME280;65907;53.640;10.050;2024-03-02T04:09:55;99709.69;;;18.96;nan
76973;BME280;65907;53.640;10.050;2024-03-02T04:12:20;99712.28;;;18.96;nan
76973;BME280;65907;53.640;10.050;2024-03-02T04:14:46;99710.50;;;18.97;nan
76973;BME280;65907;53.640;10.050;2024-03-02T04:17:11;99714.88;;;18.96;nan
76973;BME280;65907;53.640;10.050;2024-03-02T04:19:36;99702.81;;;18.95;nan
76973;BME280;65907;53.640;10.050;2024-03-02T04:22:01;99704.31;;;18.98;nan
76973;BME280;65907;53.640;10.050;2024-03-02T04:24:27;99703.63;;;18.96;nan
76973;BME280;65907;53.640;10.050;2024-03-02T04:26:52;99713.25;;;18.95;nan
76973;BME280;65907;53.640;10.050;2024-03-02T04:29:19;99708.84;;;18.96;nan
76973;BME280;65907;53.640;10.050;2024-03-02T04:31:45;99710.66;;;18.95;nan
76973;BME280;65907;53.640;10.050;2024-03-02T04:34:10;99709.13;;;18.92;nan
76973;BME280;65907;53.640;10.050;2024-03-02T04:36:35;99715.97;;;18.94;nan
76973;BME280;65907;53.640;10.050;2024-03-02T04:39:00;99711.72;;;18.92;nan
76973;BME280;65907;53.640;10.050;2024-03-02T04:41:26;99721.19;;;18.94;nan
76973;BME280;65907;53.640;10.050;2024-03-02T04:43:56;99719.00;;;18.99;nan
76973;BME280;65907;53.640;10.050;2024-03-02T04:46:22;99717.63;;;18.95;nan
76973;BME280;65907;53.640;10.050;2024-03-02T04:48:50;99719.53;;;18.92;nan
76973;BME280;65907;53.640;10.050;2024-03-02T04:51:20;99715.03;;;18.95;nan
76973;BME280;65907;53.640;10.050;2024-03-02T04:53:45;99717.34;;;18.98;nan
76973;BME280;65907;53.640;10.050;2024-03-02T04:56:12;99715.69;;;18.97;nan
76973;BME280;65907;53.640;10.050;2024-03-02T04:59:22;99717.09;;;19.01;nan
76973;BME280;65907;53.640;10.050;2024-03-02T05:02:19;99721.22;;;19.03;nan
76973;BME280;65907;53.640;10.050;2024-03-02T05:04:48;99713.94;;;19.07;nan
76973;BME280;65907;53.640;10.050;2024-03-02T05:07:18;99720.94;;;19.06;nan
76973;BME280;65907;53.640;10.050;2024-03-02T05:09:46;99709.53;;;19.08;nan
76973;BME280;65907;53.640;10.050;2024-03-02T05:12:19;99708.44;;;19.10;nan
76973;BME280;65907;53.640;10.050;2024-03-02T05:15:07;99707.50;;;19.11;nan
76973;BME280;65907;53.640;10.050;2024-03-02T05:17:41;99693.50;;;19.12;nan
76973;BME280;65907;53.640;10.050;2024-03-02T05:20:11;99708.97;;;19.14;nan
76973;BME280;65907;53.640;10.050;2024-03-02T05:22:39;99708.16;;;19.13;nan
76973;BME280;65907;53.640;10.050;2024-03-02T05:25:06;99714.88;;;19.16;nan
76973;BME280;65907;53.640;10.050;2024-03-02T05:27:32;99715.84;;;19.15;nan
76973;BME280;65907;53.640;10.050;2024-03-02T05:30:03;99703.50;;;19.17;nan
76973;BME280;65907;53.640;10.050;2024-03-02T05:32:33;99709.41;;;19.19;nan
76973;BME280;65907;53.640;10.050;2024-03-02T05:35:00;99704.31;;;19.17;nan
76973;BME280;65907;53.640;10.050;2024-03-02T05:37:25;99714.06;;;19.15;nan
76973;BME280;65907;53.640;10.050;2024-03-02T05:39:58;99713.63;;;19.20;nan
76973;BME280;65907;53.640;10.050;2024-03-02T05:42:25;99723.22;;;19.19;nan
76973;BME280;65907;53.640;10.050;2024-03-02T05:44:52;99718.03;;;19.19;nan
76973;BME280;65907;53.640;10.050;2024-03-02T05:47:27;99721.59;;;19.18;nan
76973;BME280;65907;53.640;10.050;2024-03-02T05:49:53;99725.03;;;19.19;nan
76973;BME280;65907;53.640;10.050;2024-03-02T05:52:24;99721.59;;;19.18;nan
76973;BME280;65907;53.640;10.050;2024-03-02T05:54:56;99717.72;;;19.23;nan
76973;BME280;65907;53.640;10.050;2024-03-02T05:57:23;99727.47;;;19.20;nan
76973;BME280;65907;53.640;10.050;2024-03-02T06:00:07;99718.69;;;19.22;nan
76973;BME280;65907;53.640;10.050;2024-03-02T06:02:52;99724.47;;;19.25;nan
76973;BME280;65907;53.640;10.050;2024-03-02T06:05:18;99722.66;;;19.26;nan
76973;BME280;65907;53.640;10.050;2024-03-02T06:08:14;99718.28;;;19.26;nan
76973;BME280;65907;53.640;10.050;2024-03-02T06:10:59;99721.72;;;19.27;nan
76973;BME280;65907;53.640;10.050;2024-03-02T06:13:48;99739.13;;;19.26;nan
76973;BME280;65907;53.640;10.050;2024-03-02T06:16:15;99741.75;;;19.26;nan
76973;BME280;65907;53.640;10.050;2024-03-02T06:18:51;99752.03;;;19.28;nan
76973;BME280;65907;53.640;10.050;2024-03-02T06:21:18;99739.69;;;19.30;nan
76973;BME280;65907;53.640;10.050;2024-03-02T06:23:44;99747.50;;;19.30;nan
76973;BME280;65907;53.640;10.050;2024-03-02T06:26:09;99750.25;;;19.28;nan
76973;BME280;65907;53.640;10.050;2024-03-02T06:28:34;99749.56;;;19.26;nan
76973;BME280;65907;53.640;10.050;2024-03-02T06:30:59;99754.22;;;19.23;nan
76973;BME280;65907;53.640;10.050;2024-03-02T06:33:25;99761.34;;;19.20;nan
76973;BME280;65907;53.640;10.050;2024-03-02T06:35:50;99759.03;;;19.17;nan
76973;BME280;65907;53.640;10.050;2024-03-02T06:38:15;99753.81;;;19.17;nan
76973;BME280;65907;53.640;10.050;2024-03-02T06:40:43;99756.59;;;19.16;nan
76973;BME280;65907;53.640;10.050;2024-03-02T06:43:08;99756.72;;;19.14;nan
76973;BME280;65907;53.640;10.050;2024-03-02T06:45:33;99759.59;;;19.11;nan
76973;BME280;65907;53.640;10.050;2024-03-02T06:47:59;99763.97;;;19.11;nan
76973;BME280;65907;53.640;10.050;2024-03-02T06:50:24;99763.16;;;19.10;nan
76973;BME280;65907;53.640;10.050;2024-03-02T06:52:50;99770.84;;;19.12;nan
76973;BME280;65907;53.640;10.050;2024-03-02T06:55:15;99765.91;;;19.09;nan
76973;BME280;65907;53.640;10.050;2024-03-02T06:57:40;99768.66;;;19.07;nan
76973;BME280;65907;53.640;10.050;2024-03-02T07:00:06;99769.19;;;19.11;nan
76973;BME280;65907;53.640;10.050;2024-03-02T07:02:33;99769.19;;;19.11;nan
76973;BME280;65907;53.640;10.050;2024-03-02T07:04:59;99768.38;;;19.10;nan
76973;BME280;65907;53.640;10.050;2024-03-02T07:07:24;99776.31;;;19.09;nan
76973;BME280;65907;53.640;10.050;2024-03-02T07:09:49;99769.19;;;19.11;nan
76973;BME280;65907;53.640;10.050;2024-03-02T07:12:14;99780.16;;;19.14;nan
76973;BME280;65907;53.640;10.050;2024-03-02T07:14:40;99782.50;;;19.17;nan
76973;BME280;65907;53.640;10.050;2024-03-02T07:17:23;99782.38;;;19.19;nan
76973;BME280;65907;53.640;10.050;2024-03-02T07:19:49;99789.50;;;19.17;nan
76973;BME280;65907;53.640;10.050;2024-03-02T07:22:14;99786.91;;;19.17;nan
76973;BME280;65907;53.640;10.050;2024-03-02T07:24:40;99780.03;;;19.16;nan
76973;BME280;65907;53.640;10.050;2024-03-02T07:27:06;99786.91;;;19.17;nan
76973;BME280;65907;53.640;10.050;2024-03-02T07:29:31;99793.06;;;19.16;nan
76973;BME280;65907;53.640;10.050;2024-03-02T07:31:56;99797.31;;;19.17;nan
76973;BME280;65907;53.640;10.050;2024-03-02T07:34:21;99800.88;;;19.16;nan
76973;BME280;65907;53.640;10.050;2024-03-02T07:36:46;99808.56;;;19.17;nan
76973;BME280;65907;53.640;10.050;2024-03-02T07:39:12;99798.97;;;19.18;nan
76973;BME280;65907;53.640;10.050;2024-03-02T07:41:38;99806.63;;;19.19;nan
76973;BME280;65907;53.640;10.050;2024-03-02T07:44:04;99812.81;;;19.18;nan
76973;BME280;65907;53.640;10.050;2024-03-02T07:46:33;99811.16;;;19.17;nan
76973;BME280;65907;53.640;10.050;2024-03-02T07:48:58;99811.03;;;19.19;nan
76973;BME280;65907;53.640;10.050;2024-03-02T07:51:23;99811.72;;;19.21;nan
76973;BME280;65907;53.640;10.050;2024-03-02T07:53:49;99808.28;;;19.20;nan
76973;BME280;65907;53.640;10.050;2024-03-02T07:56:14;99801.97;;;19.23;nan
76973;BME280;65907;53.640;10.050;2024-03-02T07:58:46;99809.78;;;19.23;nan
76973;BME280;65907;53.640;10.050;2024-03-02T08:01:14;99809.50;;;19.26;nan
76973;BME280;65907;53.640;10.050;2024-03-02T08:03:40;99814.72;;;19.26;nan
76973;BME280;65907;53.640;10.050;2024-03-02T08:06:05;99806.63;;;19.29;nan
76973;BME280;65907;53.640;10.050;2024-03-02T08:08:31;99809.78;;;19.33;nan
76973;BME280;65907;53.640;10.050;2024-03-02T08:10:59;99824.16;;;19.37;nan
76973;BME280;65907;53.640;10.050;2024-03-02T08:44:24;99827.47;;;19.39;nan
76973;BME280;65907;53.640;10.050;2024-03-02T08:46:49;99834.75;;;19.06;nan
76973;BME280;65907;53.640;10.050;2024-03-02T08:49:15;99839.31;;;18.53;nan
76973;BME280;65907;53.640;10.050;2024-03-02T08:51:40;99838.38;;;18.13;nan
76973;BME280;65907;53.640;10.050;2024-03-02T08:54:05;99839.16;;;17.83;nan
76973;BME280;65907;53.640;10.050;2024-03-02T08:56:31;99847.38;;;17.78;nan
76973;BME280;65907;53.640;10.050;2024-03-02T08:58:56;99837.03;;;17.67;nan
76973;BME280;65907;53.640;10.050;2024-03-02T09:01:21;99843.28;;;17.85;nan
76973;BME280;65907;53.640;10.050;2024-03-02T09:03:47;99841.97;;;18.22;nan
76973;BME280;65907;53.640;10.050;2024-03-02T09:06:15;99846.59;;;18.49;nan
76973;BME280;65907;53.640;10.050;2024-03-02T09:08:44;99849.09;;;18.71;nan
76973;BME280;65907;53.640;10.050;2024-03-02T09:11:09;99842.81;;;18.83;nan
76973;BME280;65907;53.640;10.050;2024-03-02T09:13:35;99843.63;;;18.94;nan
76973;BME280;65907;53.640;10.050;2024-03-02T09:16:01;99836.13;;;19.00;nan
76973;BME280;65907;53.640;10.050;2024-03-02T09:18:26;99843.38;;;19.06;nan
76973;BME280;65907;53.640;10.050;2024-03-02T09:20:51;99846.56;;;19.10;nan
76973;BME280;65907;53.640;10.050;2024-03-02T09:23:17;99848.88;;;19.13;nan
76973;BME280;65907;53.640;10.050;2024-03-02T09:25:42;99845.19;;;19.16;nan
76973;BME280;65907;53.640;10.050;2024-03-02T09:28:08;99844.06;;;19.18;nan
76973;BME280;65907;53.640;10.050;2024-03-02T09:46:07;99842.16;;;19.30;nan
76973;BME280;65907;53.640;10.050;2024-03-02T09:48:33;99845.03;;;19.27;nan
76973;BME280;65907;53.640;10.050;2024-03-02T09:50:59;99847.75;;;19.26;nan
76973;BME280;65907;53.640;10.050;2024-03-02T09:53:25;99846.97;;;19.25;nan
76973;BME280;65907;53.640;10.050;2024-03-02T09:55:54;99850.38;;;19.26;nan
76973;BME280;65907;53.640;10.050;2024-03-02T09:58:19;99853.81;;;19.26;nan
76973;BME280;65907;53.640;10.050;2024-03-02T10:00:45;99855.59;;;19.26;nan
76973;BME280;65907;53.640;10.050;2024-03-02T10:03:16;99855.59;;;19.26;nan
76973;BME280;65907;53.640;10.050;2024-03-02T10:05:46;99852.16;;;19.25;nan
76973;BME280;65907;53.640;10.050;2024-03-02T12:25:07;99834.47;;;19.39;nan
76973;BME280;65907;53.640;10.050;2024-03-02T12:27:33;99832.66;;;19.39;nan
76973;BME280;65907;53.640;10.050;2024-03-02T12:29:58;99832.97;;;19.36;nan
76973;BME280;65907;53.640;10.050;2024-03-02T12:32:26;99825.00;;;19.38;nan
76973;BME280;65907;53.640;10.050;2024-03-02T12:34:54;99831.16;;;19.37;nan
76973;BME280;65907;53.640;10.050;2024-03-02T12:37:20;99828.56;;;19.37;nan
76973;BME280;65907;53.640;10.050;2024-03-02T12:39:45;99820.88;;;19.35;nan
76973;BME280;65907;53.640;10.050;2024-03-02T12:42:11;99823.78;;;19.32;nan
76973;BME280;65907;53.640;10.050;2024-03-02T14:27:55;99761.88;;;19.44;nan
76973;BME280;65907;53.640;10.050;2024-03-02T14:30:21;99763.50;;;19.45;nan
76973;BME280;65907;53.640;10.050;2024-03-02T14:32:46;99761.59;;;19.47;nan
76973;BME280;65907;53.640;10.050;2024-03-02T14:35:12;99764.19;;;19.47;nan
76973;BME280;65907;53.640;10.050;2024-03-02T14:37:37;99760.34;;;19.51;nan
76973;BME280;65907;53.640;10.050;2024-03-02T14:40:03;99764.59;;;19.52;nan
76973;BME280;65907;53.640;10.050;2024-03-02T14:42:31;99754.69;;;19.56;nan
76973;BME280;65907;53.640;10.050;2024-03-02T14:44:56;99761.66;;;19.65;nan
76973;BME280;65907;53.640;10.050;2024-03-02T14:47:21;99762.19;;;19.69;nan
76973;BME280;65907;53.640;10.050;2024-03-02T14:49:47;99757.91;;;19.77;nan
76973;BME280;65907;53.640;10.050;2024-03-02T14:52:12;99754.34;;;19.78;nan
76973;BME280;65907;53.640;10.050;2024-03-02T14:54:37;99757.75;;;19.79;nan
76973;BME280;65907;53.640;10.050;2024-03-02T14:57:07;99746.81;;;19.75;nan
76973;BME280;65907;53.640;10.050;2024-03-02T14:59:33;99754.22;;;19.70;nan
76973;BME280;65907;53.640;10.050;2024-03-02T15:01:58;99753.69;;;19.67;nan
76973;BME280;65907;53.640;10.050;2024-03-02T15:04:26;99755.34;;;19.68;nan
76973;BME280;65907;53.640;10.050;2024-03-02T15:06:51;99747.38;;;19.69;nan
76973;BME280;65907;53.640;10.050;2024-03-02T15:09:17;99751.47;;;19.72;nan
76973;BME280;65907;53.640;10.050;2024-03-02T15:11:44;99746.84;;;19.66;nan
76973;BME280;65907;53.640;10.050;2024-03-02T15:14:10;99747.66;;;19.66;nan
76973;BME280;65907;53.640;10.050;2024-03-02T15:16:35;99748.50;;;19.67;nan
76973;BME280;65907;53.640;10.050;2024-03-02T15:19:00;99739.81;;;19.66;nan
76973;BME280;65907;53.640;10.050;2024-03-02T15:21:25;99740.78;;;19.65;nan
76973;BME280;65907;53.640;10.050;2024-03-02T15:23:51;99740.00;;;19.65;nan
76973;BME280;65907;53.640;10.050;2024-03-02T15:26:16;99736.00;;;19.60;nan
76973;BME280;65907;53.640;10.050;2024-03-02T15:28:41;99745.06;;;19.56;nan
76973;BME280;65907;53.640;10.050;2024-03-02T15:31:07;99737.81;;;19.60;nan
76973;BME280;65907;53.640;10.050;2024-03-02T15:33:32;99739.44;;;19.61;nan
76973;BME280;65907;53.640;10.050;2024-03-02T15:35:58;99734.91;;;19.63;nan
76973;BME280;65907;53.640;10.050;2024-03-02T15:38:25;99741.75;;;19.64;nan
76973;BME280;65907;53.640;10.050;2024-03-02T15:40:50;99741.91;;;19.62;nan
76973;BME280;65907;53.640;10.050;2024-03-02T15:43:18;99736.53;;;19.64;nan
76973;BME280;65907;53.640;10.050;2024-03-02T15:45:43;99736.53;;;19.64;nan
76973;BME280;65907;53.640;10.050;2024-03-02T15:48:08;99730.78;;;19.60;nan
76973;BME280;65907;53.640;10.050;2024-03-02T15:50:37;99731.50;;;19.62;nan
76973;BME280;65907;53.640;10.050;2024-03-02T15:53:03;99727.91;;;19.63;nan
76973;BME280;65907;53.640;10.050;2024-03-02T15:55:31;99733.56;;;19.59;nan
76973;BME280;65907;53.640;10.050;2024-03-02T15:57:56;99737.41;;;19.55;nan
76973;BME280;65907;53.640;10.050;2024-03-02T16:00:22;99739.34;;;19.53;nan
76973;BME280;65907;53.640;10.050;2024-03-02T16:02:47;99734.25;;;19.51;nan
76973;BME280;65907;53.640;10.050;2024-03-02T16:05:12;99733.69;;;19.57;nan
76973;BME280;65907;53.640;10.050;2024-03-02T16:07:38;99733.56;;;19.59;nan
76973;BME280;65907;53.640;10.050;2024-03-02T16:10:03;99745.91;;;19.57;nan
76973;BME280;65907;53.640;10.050;2024-03-02T16:12:31;99737.53;;;19.53;nan
76973;BME280;65907;53.640;10.050;2024-03-02T16:14:56;99743.72;;;19.52;nan
76973;BME280;65907;53.640;10.050;2024-03-02T16:17:21;99743.88;;;19.51;nan
76973;BME280;65907;53.640;10.050;2024-03-02T16:19:47;99747.16;;;19.53;nan
76973;BME280;65907;53.640;10.050;2024-03-02T16:24:47;99745.94;;;19.47;nan
76973;BME280;65907;53.640;10.050;2024-03-02T16:27:12;99746.06;;;19.45;nan
76973;BME280;65907;53.640;10.050;2024-03-02T16:29:38;99741.00;;;19.44;nan
76973;BME280;65907;53.640;10.050;2024-03-02T16:32:03;99740.34;;;19.42;nan
76973;BME280;65907;53.640;10.050;2024-03-02T16:34:29;99744.72;;;19.41;nan
76973;BME280;65907;53.640;10.050;2024-03-02T16:36:54;99735.94;;;19.42;nan
76973;BME280;65907;53.640;10.050;2024-03-02T16:39:19;99738.69;;;19.41;nan
76973;BME280;65907;53.640;10.050;2024-03-02T16:41:44;99745.69;;;19.40;nan
76973;BME280;65907;53.640;10.050;2024-03-02T16:44:12;99749.41;;;19.38;nan
76973;BME280;65907;53.640;10.050;2024-03-02T16:46:37;99750.22;;;19.38;nan
76973;BME280;65907;53.640;10.050;2024-03-02T16:49:05;99757.22;;;19.38;nan
76973;BME280;65907;53.640;10.050;2024-03-02T16:51:30;99754.75;;;19.36;nan
76973;BME280;65907;53.640;10.050;2024-03-02T16:54:03;99749.53;;;19.36;nan
76973;BME280;65907;53.640;10.050;2024-03-02T16:56:28;99752.16;;;19.36;nan
76973;BME280;65907;53.640;10.050;2024-03-02T16:58:54;99751.31;;;19.35;nan
76973;BME280;65907;53.640;10.050;2024-03-02T17:01:19;99757.34;;;19.36;nan
76973;BME280;65907;53.640;10.050;2024-03-02T17:03:44;99755.72;;;19.35;nan
76973;BME280;65907;53.640;10.050;2024-03-02T17:06:09;99757.66;;;19.33;nan
76973;BME280;65907;53.640;10.050;2024-03-02T17:08:35;99761.06;;;19.33;nan
76973;BME280;65907;53.640;10.050;2024-03-02T17:11:00;99761.91;;;19.34;nan
76973;BME280;65907;53.640;10.050;2024-03-02T17:13:28;99763.66;;;19.33;nan
76973;BME280;65907;53.640;10.050;2024-03-02T17:15:53;99760.53;;;19.30;nan
76973;BME280;65907;53.640;10.050;2024-03-02T17:18:18;99769.31;;;19.29;nan
76973;BME280;65907;53.640;10.050;2024-03-02T17:20:43;99764.22;;;19.27;nan
76973;BME280;65907;53.640;10.050;2024-03-02T17:23:09;99765.06;;;19.28;nan
76973;BME280;65907;53.640;10.050;2024-03-02T17:25:34;99769.44;;;19.27;nan
76973;BME280;65907;53.640;10.050;2024-03-02T17:31:03;99777.41;;;19.26;nan
76973;BME280;65907;53.640;10.050;2024-03-02T17:33:29;99776.59;;;19.25;nan
76973;BME280;65907;53.640;10.050;2024-03-02T17:35:56;99780.97;;;19.25;nan
76973;BME280;65907;53.640;10.050;2024-03-02T17:38:22;99781.13;;;19.23;nan
76973;BME280;65907;53.640;10.050;2024-03-02T17:40:48;99787.00;;;19.25;nan
76973;BME280;65907;53.640;10.050;2024-03-02T17:43:13;99787.28;;;19.22;nan
76973;BME280;65907;53.640;10.050;2024-03-02T17:45:39;99786.47;;;19.22;nan
76973;BME280;65907;53.640;10.050;2024-03-02T17:48:09;99790.88;;;19.21;nan
76973;BME280;65907;53.640;10.050;2024-03-02T17:50:37;99789.91;;;19.22;nan
76973;BME280;65907;53.640;10.050;2024-03-02T17:53:05;99792.22;;;19.25;nan
76973;BME280;65907;53.640;10.050;2024-03-02T17:55:51;99795.50;;;19.27;nan
76973;BME280;65907;53.640;10.050;2024-03-02T17:58:16;99792.78;;;19.29;nan
76973;BME280;65907;53.640;10.050;2024-03-02T18:00:41;99790.88;;;19.01;nan